createdAt,value
2018-02-12T00:00:04.403Z,93.84
2018-02-12T00:01:57.292Z,93.37
2018-02-12T00:02:57.246Z,93.65
2018-02-12T00:04:50.154Z,93.46
2018-02-12T00:05:50.154Z,93.46
2018-02-12T00:07:43.062Z,93.65
2018-02-12T00:08:43.114Z,93.37
2018-02-12T00:10:35.966Z,93.37
2018-02-12T00:11:35.962Z,93.46
2018-02-12T00:13:28.867Z,93.70
2018-02-12T00:14:28.877Z,93.75
2018-02-12T00:16:21.879Z,93.80
2018-02-12T00:17:21.774Z,93.84
2018-02-12T00:19:14.757Z,93.37
2018-02-12T00:20:14.682Z,94.08
2018-02-12T00:22:07.594Z,93.23
2018-02-12T00:23:07.587Z,93.27
2018-02-12T00:25:00.539Z,93.99
2018-02-12T00:26:00.517Z,94.04
2018-02-12T00:27:53.435Z,93.80
2018-02-12T00:28:53.426Z,94.08
2018-02-12T00:30:46.313Z,93.32
2018-02-12T00:31:46.304Z,93.42
2018-02-12T00:33:39.223Z,92.94
2018-02-12T00:34:39.212Z,93.08
2018-02-12T00:36:32.161Z,92.99
2018-02-12T00:37:32.122Z,92.90
2018-02-12T00:39:25.008Z,92.99
2018-02-12T00:40:25.022Z,93.08
2018-02-12T00:42:17.991Z,92.71
2018-02-12T00:43:17.927Z,92.90
2018-02-12T00:45:10.817Z,92.80
2018-02-12T00:46:10.840Z,92.80
2018-02-12T00:48:03.741Z,92.71
2018-02-12T00:49:03.736Z,92.61
2018-02-12T00:50:56.645Z,92.80
2018-02-12T00:51:56.640Z,92.71
2018-02-12T00:53:49.530Z,92.52
2018-02-12T00:54:49.548Z,92.99
2018-02-12T00:56:42.458Z,92.90
2018-02-12T00:57:42.450Z,93.08
2018-02-12T00:59:35.342Z,92.99
2018-02-12T01:00:35.354Z,92.71
2018-02-12T01:02:28.382Z,93.27
2018-02-12T01:03:28.298Z,93.27
2018-02-12T01:05:21.207Z,92.80
2018-02-12T01:06:21.227Z,93.23
2018-02-12T01:08:14.190Z,93.08
2018-02-12T01:09:14.079Z,92.80
2018-02-12T01:11:06.966Z,93.08
2018-02-12T01:12:07.022Z,92.99
2018-02-12T01:14:00.009Z,92.99
2018-02-12T01:14:59.931Z,92.90
2018-02-12T01:16:52.779Z,92.71
2018-02-12T01:17:52.840Z,92.90
2018-02-12T01:19:45.706Z,93.23
2018-02-12T01:20:45.702Z,92.85
2018-02-12T01:22:38.619Z,92.66
2018-02-12T01:23:38.608Z,93.13
2018-02-12T01:25:31.500Z,93.04
2018-02-12T01:26:31.530Z,93.04
2018-02-12T01:28:24.424Z,93.04
2018-02-12T01:29:24.421Z,92.94
2018-02-12T01:31:17.313Z,92.57
2018-02-12T01:32:17.327Z,92.38
2018-02-12T01:34:10.234Z,92.33
2018-02-12T01:35:10.232Z,92.99
2018-02-12T01:37:03.123Z,92.76
2018-02-12T01:38:03.188Z,92.85
2018-02-12T01:39:56.047Z,93.04
2018-02-12T01:40:56.040Z,92.94
2018-02-12T01:42:48.935Z,93.04
2018-02-12T01:43:48.947Z,92.94
2018-02-12T01:45:41.856Z,92.76
2018-02-12T01:46:41.851Z,92.94
2018-02-12T01:48:34.769Z,92.94
2018-02-12T01:49:34.753Z,93.27
2018-02-12T01:51:27.703Z,93.08
2018-02-12T01:52:27.661Z,94.08
2018-02-12T01:54:20.571Z,94.04
2018-02-12T01:55:20.610Z,94.04
2018-02-12T01:57:13.456Z,93.99
2018-02-12T01:58:13.526Z,93.32
2018-02-12T02:00:06.470Z,93.94
2018-02-12T02:01:06.373Z,93.23
2018-02-12T02:02:59.307Z,93.08
2018-02-12T02:03:59.283Z,93.13
2018-02-12T02:05:52.279Z,93.13
2018-02-12T02:06:52.185Z,93.08
2018-02-12T02:08:45.126Z,93.27
2018-02-12T02:09:45.094Z,93.08
2018-02-12T02:11:38.000Z,93.84
2018-02-12T02:12:37.995Z,93.08
2018-02-12T02:14:30.897Z,93.42
2018-02-12T02:15:30.910Z,93.84
2018-02-12T02:17:23.819Z,93.75
2018-02-12T02:18:23.877Z,93.75
2018-02-12T02:20:16.744Z,93.80
2018-02-12T02:21:16.753Z,93.23
2018-02-12T02:23:10.606Z,92.99
2018-02-12T02:24:10.679Z,92.99
2018-02-12T02:26:03.540Z,93.51
2018-02-12T02:27:03.536Z,92.66
2018-02-12T02:28:56.429Z,93.18
2018-02-12T02:29:56.443Z,93.27
2018-02-12T02:31:49.355Z,93.32
2018-02-12T02:32:49.382Z,93.04
2018-02-12T02:34:42.250Z,93.32
2018-02-12T02:35:42.253Z,93.23
2018-02-12T02:37:35.166Z,93.04
2018-02-12T02:38:35.164Z,92.85
2018-02-12T02:40:28.079Z,92.94
2018-02-12T02:41:28.120Z,92.76
2018-02-12T02:43:20.971Z,93.51
2018-02-12T02:44:21.023Z,93.51
2018-02-12T02:46:13.878Z,93.23
2018-02-12T02:47:13.873Z,93.13
2018-02-12T02:49:06.766Z,92.94
2018-02-12T02:50:06.809Z,92.76
2018-02-12T02:51:59.688Z,92.94
2018-02-12T02:52:59.698Z,92.94
2018-02-12T02:54:52.581Z,92.85
2018-02-12T02:55:52.594Z,93.04
2018-02-12T02:57:45.504Z,92.85
2018-02-12T02:58:45.502Z,92.76
2018-02-12T03:00:38.411Z,92.94
2018-02-12T03:01:38.429Z,92.94
2018-02-12T03:03:31.336Z,92.85
2018-02-12T03:04:31.375Z,92.94
2018-02-12T03:06:24.242Z,92.85
2018-02-12T03:07:24.235Z,92.85
2018-02-12T03:09:17.189Z,92.76
2018-02-12T03:10:17.153Z,92.85
2018-02-12T03:12:10.053Z,92.57
2018-02-12T03:13:10.095Z,92.66
2018-02-12T03:15:02.952Z,92.09
2018-02-12T03:16:02.951Z,91.90
2018-02-12T03:17:55.861Z,91.81
2018-02-12T03:18:55.859Z,91.62
2018-02-12T03:20:48.747Z,91.81
2018-02-12T03:21:48.773Z,92.28
2018-02-12T03:23:41.673Z,92.47
2018-02-12T03:24:41.667Z,92.38
2018-02-12T03:26:34.588Z,92.28
2018-02-12T03:27:34.581Z,92.28
2018-02-12T03:29:27.473Z,93.13
2018-02-12T03:30:27.489Z,93.13
2018-02-12T03:32:20.406Z,93.23
2018-02-12T03:33:20.393Z,93.23
2018-02-12T03:35:13.328Z,92.57
2018-02-12T03:36:13.307Z,93.13
2018-02-12T03:38:06.212Z,92.76
2018-02-12T03:39:06.206Z,92.94
2018-02-12T03:40:59.100Z,92.66
2018-02-12T03:41:59.114Z,92.76
2018-02-12T03:43:52.028Z,92.00
2018-02-12T03:44:52.028Z,92.09
2018-02-12T03:46:44.934Z,92.38
2018-02-12T03:47:44.925Z,92.76
2018-02-12T03:49:37.816Z,92.66
2018-02-12T03:50:37.830Z,92.76
2018-02-12T03:52:30.744Z,92.76
2018-02-12T03:53:30.737Z,92.76
2018-02-12T03:55:23.629Z,92.76
2018-02-12T03:56:23.643Z,92.94
2018-02-12T03:58:16.549Z,92.94
2018-02-12T03:59:16.546Z,92.76
2018-02-12T04:01:09.445Z,92.85
2018-02-12T04:02:09.456Z,92.76
2018-02-12T04:04:02.363Z,92.94
2018-02-12T04:05:02.362Z,92.85
2018-02-12T04:06:55.268Z,92.76
2018-02-12T04:07:55.264Z,92.66
2018-02-12T04:09:48.156Z,92.66
2018-02-12T04:10:48.170Z,93.13
2018-02-12T04:12:41.082Z,92.85
2018-02-12T04:13:41.076Z,92.85
2018-02-12T04:15:33.968Z,92.85
2018-02-12T04:16:33.983Z,92.76
2018-02-12T04:18:26.890Z,92.85
2018-02-12T04:19:26.888Z,92.85
2018-02-12T04:21:19.829Z,92.94
2018-02-12T04:22:19.791Z,92.85
2018-02-12T04:24:12.745Z,92.85
2018-02-12T04:25:12.696Z,93.13
2018-02-12T04:27:05.604Z,92.76
2018-02-12T04:28:05.600Z,92.85
2018-02-12T04:29:58.492Z,92.38
2018-02-12T04:30:58.510Z,93.04
2018-02-12T04:32:51.416Z,92.66
2018-02-12T04:33:51.410Z,92.94
2018-02-12T04:35:44.304Z,92.76
2018-02-12T04:36:44.316Z,92.76
2018-02-12T04:38:37.224Z,93.23
2018-02-12T04:39:37.219Z,93.61
2018-02-12T04:41:30.112Z,93.80
2018-02-12T04:42:30.126Z,93.65
2018-02-12T04:44:23.040Z,93.18
2018-02-12T04:45:23.037Z,93.94
2018-02-12T04:47:15.943Z,93.75
2018-02-12T04:48:15.939Z,94.04
2018-02-12T04:50:08.831Z,94.23
2018-02-12T04:51:08.843Z,94.51
2018-02-12T04:53:01.765Z,94.32
2018-02-12T04:54:01.762Z,94.23
2018-02-12T04:55:54.652Z,95.45
2018-02-12T04:56:54.665Z,95.07
2018-02-12T04:58:47.577Z,95.07
2018-02-12T04:59:47.573Z,94.98
2018-02-12T05:01:40.463Z,94.89
2018-02-12T05:02:40.476Z,95.45
2018-02-12T05:04:33.386Z,94.98
2018-02-12T05:05:33.380Z,94.98
2018-02-12T05:07:26.290Z,95.36
2018-02-12T05:08:26.285Z,95.93
2018-02-12T05:10:19.175Z,95.93
2018-02-12T05:11:19.187Z,96.59
2018-02-12T05:13:12.096Z,96.31
2018-02-12T05:14:12.093Z,96.88
2018-02-12T05:16:04.981Z,96.02
2018-02-12T05:17:04.994Z,95.55
2018-02-12T05:18:57.910Z,95.64
2018-02-12T05:19:57.907Z,96.02
2018-02-12T05:21:50.796Z,95.74
2018-02-12T05:22:50.811Z,96.02
2018-02-12T05:24:43.724Z,95.64
2018-02-12T05:25:43.715Z,95.83
2018-02-12T05:27:36.624Z,95.93
2018-02-12T05:28:36.620Z,96.69
2018-02-12T05:30:29.508Z,96.31
2018-02-12T05:31:29.533Z,96.97
2018-02-12T05:33:22.431Z,96.40
2018-02-12T05:34:22.425Z,96.97
2018-02-12T05:36:15.346Z,96.69
2018-02-12T05:37:15.332Z,96.40
2018-02-12T05:39:08.238Z,95.93
2018-02-12T05:40:08.233Z,96.69
2018-02-12T05:42:01.132Z,97.06
2018-02-12T05:43:01.138Z,96.83
2018-02-12T05:44:54.050Z,96.69
2018-02-12T05:45:54.040Z,96.40
2018-02-12T05:47:46.982Z,96.69
2018-02-12T05:48:46.964Z,96.97
2018-02-12T05:50:39.854Z,96.50
2018-02-12T05:51:39.867Z,96.40
2018-02-12T05:53:32.783Z,97.06
2018-02-12T05:54:32.775Z,96.88
2018-02-12T05:56:25.664Z,97.25
2018-02-12T05:57:25.679Z,97.25
2018-02-12T05:59:18.590Z,97.06
2018-02-12T06:00:18.584Z,97.35
2018-02-12T06:02:11.480Z,96.88
2018-02-12T06:03:11.488Z,96.69
2018-02-12T06:05:04.399Z,97.16
2018-02-12T06:06:04.392Z,97.16
2018-02-12T06:07:57.346Z,96.59
2018-02-12T06:08:57.302Z,96.59
2018-02-12T06:10:50.193Z,96.88
2018-02-12T06:11:50.199Z,96.78
2018-02-12T06:13:43.154Z,96.78
2018-02-12T06:14:43.108Z,96.50
2018-02-12T06:16:35.997Z,96.59
2018-02-12T06:17:36.010Z,96.88
2018-02-12T06:19:28.922Z,96.97
2018-02-12T06:20:28.921Z,96.78
2018-02-12T06:22:21.808Z,96.50
2018-02-12T06:23:21.821Z,96.69
2018-02-12T06:25:14.731Z,96.21
2018-02-12T06:26:14.728Z,96.40
2018-02-12T06:28:07.636Z,96.40
2018-02-12T06:29:07.629Z,96.40
2018-02-12T06:31:00.530Z,96.12
2018-02-12T06:32:00.533Z,96.21
2018-02-12T06:33:53.443Z,96.50
2018-02-12T06:34:53.439Z,96.59
2018-02-12T06:36:46.329Z,96.50
2018-02-12T06:37:46.343Z,96.02
2018-02-12T06:39:39.270Z,96.31
2018-02-12T06:40:39.246Z,96.59
2018-02-12T06:42:32.142Z,96.59
2018-02-12T06:43:32.156Z,96.59
2018-02-12T06:45:25.061Z,96.12
2018-02-12T06:46:25.057Z,96.59
2018-02-12T06:48:17.968Z,96.31
2018-02-12T06:49:17.964Z,96.02
2018-02-12T06:51:10.857Z,96.31
2018-02-12T06:52:10.868Z,96.88
2018-02-12T06:54:03.781Z,96.50
2018-02-12T06:55:03.774Z,96.50
2018-02-12T06:56:56.665Z,96.40
2018-02-12T06:57:56.678Z,96.50
2018-02-12T06:59:49.589Z,96.50
2018-02-12T07:00:49.585Z,96.50
2018-02-12T07:02:42.475Z,96.59
2018-02-12T07:03:42.487Z,96.50
2018-02-12T07:05:35.401Z,95.64
2018-02-12T07:06:35.394Z,95.36
2018-02-12T07:08:28.301Z,95.83
2018-02-12T07:09:28.296Z,95.74
2018-02-12T07:11:21.191Z,95.93
2018-02-12T07:12:21.205Z,95.64
2018-02-12T07:14:14.243Z,96.21
2018-02-12T07:15:14.239Z,95.93
2018-02-12T07:17:07.127Z,95.74
2018-02-12T07:18:07.140Z,95.83
2018-02-12T07:20:00.062Z,95.64
2018-02-12T07:21:00.043Z,95.45
2018-02-12T07:22:52.936Z,95.83
2018-02-12T07:23:52.948Z,95.93
2018-02-12T07:25:45.890Z,95.36
2018-02-12T07:26:45.850Z,95.26
2018-02-12T07:28:38.835Z,96.21
2018-02-12T07:29:38.754Z,96.12
2018-02-12T07:31:31.645Z,95.83
2018-02-12T07:32:31.657Z,95.36
2018-02-12T07:34:24.565Z,95.36
2018-02-12T07:35:24.563Z,95.36
2018-02-12T07:37:17.451Z,95.17
2018-02-12T07:38:17.467Z,95.07
2018-02-12T07:40:10.373Z,95.17
2018-02-12T07:41:10.370Z,94.79
2018-02-12T07:43:03.257Z,94.89
2018-02-12T07:44:03.269Z,94.32
2018-02-12T07:45:56.179Z,94.42
2018-02-12T07:46:56.175Z,94.42
2018-02-12T07:48:49.083Z,94.42
2018-02-12T07:49:49.078Z,94.32
2018-02-12T07:51:41.974Z,94.60
2018-02-12T07:52:41.985Z,94.60
2018-02-12T07:54:34.894Z,93.65
2018-02-12T07:55:34.890Z,93.89
2018-02-12T07:57:27.782Z,93.75
2018-02-12T07:58:27.795Z,93.32
2018-02-12T08:00:20.705Z,93.42
2018-02-12T08:01:20.703Z,93.13
2018-02-12T08:03:13.599Z,92.94
2018-02-12T08:04:13.608Z,92.94
2018-02-12T08:06:06.548Z,92.09
2018-02-12T08:07:06.512Z,92.09
2018-02-12T08:08:59.426Z,91.90
2018-02-12T08:09:59.425Z,91.81
2018-02-12T08:11:52.315Z,91.14
2018-02-12T08:12:52.330Z,91.33
2018-02-12T08:14:45.249Z,91.62
2018-02-12T08:15:45.241Z,90.95
2018-02-12T08:17:38.129Z,91.33
2018-02-12T08:18:38.144Z,91.33
2018-02-12T08:20:31.052Z,91.62
2018-02-12T08:21:31.054Z,91.71
2018-02-12T08:23:23.943Z,90.95
2018-02-12T08:24:23.958Z,90.67
2018-02-12T08:26:16.897Z,90.20
2018-02-12T08:27:16.869Z,89.82
2018-02-12T08:29:09.813Z,89.63
2018-02-12T08:30:09.774Z,89.25
2018-02-12T08:32:02.669Z,90.01
2018-02-12T08:33:02.683Z,89.63
2018-02-12T08:34:55.599Z,89.82
2018-02-12T08:35:55.592Z,89.53
2018-02-12T08:37:48.484Z,89.82
2018-02-12T08:38:48.500Z,90.29
2018-02-12T08:40:41.447Z,90.29
2018-02-12T08:41:41.412Z,90.39
2018-02-12T08:43:34.306Z,90.20
2018-02-12T08:44:34.321Z,90.77
2018-02-12T08:46:27.236Z,90.95
2018-02-12T08:47:27.226Z,90.95
2018-02-12T08:49:20.138Z,91.52
2018-02-12T08:50:20.134Z,91.33
2018-02-12T08:52:13.031Z,91.62
2018-02-12T08:53:13.045Z,91.76
2018-02-12T08:55:05.963Z,92.24
2018-02-12T08:56:05.956Z,91.67
2018-02-12T08:57:58.864Z,92.24
2018-02-12T08:58:58.863Z,92.71
2018-02-12T09:00:51.772Z,93.27
2018-02-12T09:01:51.771Z,93.94
2018-02-12T09:03:44.662Z,93.18
2018-02-12T09:04:44.676Z,93.46
2018-02-12T09:06:37.800Z,93.75
2018-02-12T09:07:37.777Z,93.08
2018-02-12T09:09:30.685Z,93.27
2018-02-12T09:10:30.709Z,93.56
2018-02-12T09:12:24.564Z,93.18
2018-02-12T09:13:24.581Z,93.75
2018-02-12T09:15:17.503Z,94.04
2018-02-12T09:16:17.486Z,94.04
2018-02-12T09:18:10.413Z,94.42
2018-02-12T09:19:10.398Z,94.42
2018-02-12T09:21:03.306Z,95.07
2018-02-12T09:22:03.300Z,94.98
2018-02-12T09:23:56.599Z,94.32
2018-02-12T09:24:56.289Z,94.04
2018-02-12T09:26:49.118Z,93.94
2018-02-12T09:27:49.114Z,93.65
2018-02-12T09:29:42.059Z,93.46
2018-02-12T09:30:42.032Z,93.94
2018-02-12T09:32:34.925Z,93.23
2018-02-12T09:33:34.940Z,93.32
2018-02-12T09:35:27.850Z,93.04
2018-02-12T09:36:27.874Z,93.04
2018-02-12T09:38:20.736Z,92.85
2018-02-12T09:39:20.762Z,92.28
2018-02-12T09:41:13.667Z,92.28
2018-02-12T09:42:13.670Z,91.43
2018-02-12T09:44:06.555Z,91.05
2018-02-12T09:45:06.569Z,91.14
2018-02-12T09:46:59.483Z,90.15
2018-02-12T09:47:59.479Z,90.24
2018-02-12T09:49:52.392Z,90.81
2018-02-12T09:50:52.389Z,91.09
2018-02-12T09:52:45.299Z,90.72
2018-02-12T09:53:45.301Z,90.72
2018-02-12T09:55:38.215Z,89.96
2018-02-12T09:56:38.210Z,90.05
2018-02-12T09:58:31.121Z,89.86
2018-02-12T09:59:31.145Z,90.10
2018-02-12T10:01:24.051Z,88.54
2018-02-12T10:02:24.051Z,87.59
2018-02-12T10:04:16.945Z,88.44
2018-02-12T10:05:16.960Z,89.29
2018-02-12T10:07:09.878Z,88.82
2018-02-12T10:08:09.876Z,88.92
2018-02-12T10:10:02.791Z,89.20
2018-02-12T10:11:02.812Z,89.11
2018-02-12T10:12:55.687Z,89.39
2018-02-12T10:13:55.713Z,88.82
2018-02-12T10:15:48.609Z,88.63
2018-02-12T10:16:48.606Z,88.73
2018-02-12T10:18:42.482Z,87.92
2018-02-12T10:19:42.486Z,87.82
2018-02-12T10:21:35.395Z,87.45
2018-02-12T10:22:35.394Z,87.06
2018-02-12T10:24:28.437Z,87.73
2018-02-12T10:25:28.472Z,87.82
2018-02-12T10:27:21.382Z,86.97
2018-02-12T10:28:21.389Z,87.25
2018-02-12T10:30:14.324Z,87.16
2018-02-12T10:31:14.298Z,87.06
2018-02-12T10:33:07.257Z,86.16
2018-02-12T10:34:07.255Z,86.44
2018-02-12T10:36:01.599Z,85.30
2018-02-12T10:37:01.542Z,84.83
2018-02-12T10:38:54.430Z,84.92
2018-02-12T10:39:54.556Z,84.55
2018-02-12T10:41:47.365Z,83.08
2018-02-12T10:42:47.361Z,83.17
2018-02-12T10:44:40.255Z,84.98
2018-02-12T10:45:40.271Z,85.55
2018-02-12T10:47:33.183Z,85.55
2018-02-12T10:48:33.293Z,85.07
2018-02-12T10:50:26.097Z,85.36
2018-02-12T10:51:26.104Z,85.36
2018-02-12T10:53:18.993Z,84.98
2018-02-12T10:54:19.006Z,85.36
2018-02-12T10:56:11.920Z,85.55
2018-02-12T10:57:11.931Z,84.78
2018-02-12T10:59:04.919Z,85.55
2018-02-12T11:00:04.827Z,84.55
2018-02-12T11:01:57.742Z,83.22
2018-02-12T11:02:57.739Z,83.78
2018-02-12T11:04:50.635Z,83.31
2018-02-12T11:05:50.661Z,83.78
2018-02-12T11:07:43.567Z,83.97
2018-02-12T11:08:43.570Z,83.78
2018-02-12T11:10:36.478Z,85.02
2018-02-12T11:11:36.477Z,84.07
2018-02-12T11:13:29.380Z,83.12
2018-02-12T11:14:29.388Z,82.55
2018-02-12T11:16:22.324Z,81.98
2018-02-12T11:17:22.307Z,81.98
2018-02-12T11:19:15.314Z,81.79
2018-02-12T11:20:15.302Z,80.37
2018-02-12T11:22:08.216Z,79.90
2018-02-12T11:23:08.214Z,80.75
2018-02-12T11:25:01.112Z,81.04
2018-02-12T11:26:01.127Z,81.88
2018-02-12T11:27:54.043Z,81.23
2018-02-12T11:28:54.038Z,81.13
2018-02-12T11:30:46.957Z,79.80
2018-02-12T11:31:46.974Z,80.37
2018-02-12T11:33:39.842Z,79.99
2018-02-12T11:34:39.913Z,77.43
2018-02-12T11:36:32.952Z,78.00
2018-02-12T11:37:32.774Z,78.99
2018-02-12T11:39:25.681Z,79.46
2018-02-12T11:40:25.700Z,79.08
2018-02-12T11:42:20.997Z,78.42
2018-02-12T11:43:18.613Z,77.09
2018-02-12T11:45:11.733Z,77.47
2018-02-12T11:46:11.736Z,77.84
2018-02-12T11:48:04.600Z,77.66
2018-02-12T11:49:04.597Z,76.46
2018-02-12T11:50:57.523Z,75.28
2018-02-12T11:51:57.516Z,75.42
2018-02-12T11:53:50.627Z,76.04
2018-02-12T11:54:50.644Z,75.70
2018-02-12T11:56:43.573Z,75.04
2018-02-12T11:57:43.598Z,75.42
2018-02-12T11:59:36.496Z,75.51
2018-02-12T12:00:36.487Z,75.42
2018-02-12T12:02:29.429Z,74.94
2018-02-12T12:03:29.406Z,75.04
2018-02-12T12:05:22.358Z,73.23
2018-02-12T12:06:22.322Z,72.75
2018-02-12T12:08:15.275Z,73.42
2018-02-12T12:09:15.244Z,73.71
2018-02-12T12:11:08.173Z,73.33
2018-02-12T12:12:08.166Z,74.37
2018-02-12T12:14:01.064Z,74.18
2018-02-12T12:15:01.082Z,73.61
2018-02-12T12:16:53.998Z,73.04
2018-02-12T12:17:53.999Z,71.23
2018-02-12T12:19:46.892Z,70.76
2018-02-12T12:20:46.922Z,70.25
2018-02-12T12:22:39.832Z,70.82
2018-02-12T12:23:39.826Z,71.30
2018-02-12T12:25:32.725Z,72.72
2018-02-12T12:26:32.742Z,72.44
2018-02-12T12:28:25.686Z,71.86
2018-02-12T12:29:25.669Z,71.48
2018-02-12T12:31:18.581Z,71.07
2018-02-12T12:32:18.578Z,71.36
2018-02-12T12:34:11.518Z,72.88
2018-02-12T12:35:11.515Z,73.82
2018-02-12T12:37:04.458Z,73.38
2018-02-12T12:38:04.425Z,71.86
2018-02-12T12:39:57.319Z,72.25
2018-02-12T12:40:57.335Z,72.21
2018-02-12T12:42:50.270Z,72.25
2018-02-12T12:43:50.305Z,71.30
2018-02-12T12:45:43.164Z,70.59
2018-02-12T12:46:43.176Z,71.01
2018-02-12T12:48:36.095Z,71.07
2018-02-12T12:49:36.091Z,71.86
2018-02-12T12:51:29.007Z,72.15
2018-02-12T12:52:29.005Z,72.63
2018-02-12T12:54:21.969Z,72.81
2018-02-12T12:55:21.929Z,72.44
2018-02-12T12:57:14.834Z,71.11
2018-02-12T12:58:14.835Z,71.30
2018-02-12T13:00:07.734Z,71.86
2018-02-12T13:01:07.753Z,71.11
2018-02-12T13:03:00.684Z,70.82
2018-02-12T13:04:00.683Z,70.54
2018-02-12T13:05:53.584Z,71.64
2018-02-12T13:06:53.598Z,70.35
2018-02-12T13:08:46.514Z,70.06
2018-02-12T13:09:46.514Z,69.59
2018-02-12T13:11:39.413Z,70.25
2018-02-12T13:12:39.424Z,70.54
2018-02-12T13:14:32.340Z,68.35
2018-02-12T13:15:32.338Z,68.44
2018-02-12T13:17:25.261Z,67.40
2018-02-12T13:18:25.258Z,68.07
2018-02-12T13:20:18.154Z,69.49
2018-02-12T13:21:18.171Z,69.21
2018-02-12T13:23:11.104Z,67.69
2018-02-12T13:24:11.086Z,67.97
2018-02-12T13:26:04.138Z,67.72
2018-02-12T13:27:05.268Z,68.10
2018-02-12T13:28:57.076Z,68.19
2018-02-12T13:29:57.675Z,69.43
2018-02-12T13:31:49.980Z,67.25
2018-02-12T13:32:50.002Z,66.96
2018-02-12T13:34:42.912Z,66.67
2018-02-12T13:35:42.907Z,68.19
2018-02-12T13:37:35.881Z,66.87
2018-02-12T13:38:35.827Z,66.96
2018-02-12T13:40:28.732Z,68.77
2018-02-12T13:41:28.745Z,68.19
2018-02-12T13:43:21.668Z,66.67
2018-02-12T13:44:21.676Z,65.73
2018-02-12T13:46:14.564Z,64.97
2018-02-12T13:47:14.581Z,66.11
2018-02-12T13:49:07.496Z,65.82
2018-02-12T13:50:07.623Z,65.63
2018-02-12T13:52:00.392Z,66.01
2018-02-12T13:53:00.503Z,65.82
2018-02-12T13:54:53.327Z,66.77
2018-02-12T13:55:53.352Z,66.96
2018-02-12T13:57:46.344Z,66.87
2018-02-12T13:58:46.275Z,67.02
2018-02-12T14:00:39.213Z,68.16
2018-02-12T14:01:39.190Z,68.64
2018-02-12T14:03:33.259Z,68.96
2018-02-12T14:04:32.109Z,68.35
2018-02-12T14:06:25.740Z,68.44
2018-02-12T14:07:25.867Z,69.30
2018-02-12T14:09:18.676Z,69.21
2018-02-12T14:10:18.704Z,69.21
2018-02-12T14:12:11.581Z,70.06
2018-02-12T14:13:11.581Z,68.92
2018-02-12T14:15:04.513Z,68.44
2018-02-12T14:16:04.503Z,69.40
2018-02-12T14:17:57.648Z,68.26
2018-02-12T14:18:57.641Z,67.50
2018-02-12T14:20:50.688Z,68.92
2018-02-12T14:21:50.701Z,69.11
2018-02-12T14:23:43.621Z,66.27
2018-02-12T14:24:43.850Z,65.79
2018-02-12T14:26:36.698Z,68.73
2018-02-12T14:27:36.711Z,68.92
2018-02-12T14:29:29.695Z,67.40
2018-02-12T14:30:29.685Z,67.59
2018-02-12T14:32:23.525Z,67.53
2018-02-12T14:33:23.543Z,67.53
2018-02-12T14:35:16.457Z,67.72
2018-02-12T14:36:16.454Z,66.77
2018-02-12T14:38:09.375Z,66.55
2018-02-12T14:39:09.372Z,66.46
2018-02-12T14:41:02.287Z,65.88
2018-02-12T14:42:02.293Z,67.21
2018-02-12T14:43:55.274Z,68.07
2018-02-12T14:44:55.249Z,68.64
2018-02-12T14:46:48.109Z,68.16
2018-02-12T14:47:48.122Z,69.21
2018-02-12T14:49:41.112Z,69.30
2018-02-12T14:50:41.055Z,69.02
2018-02-12T14:52:33.984Z,68.16
2018-02-12T14:53:34.005Z,68.64
2018-02-12T14:55:26.937Z,68.44
2018-02-12T14:56:26.913Z,68.44
2018-02-12T14:58:19.872Z,66.46
2018-02-12T14:59:19.836Z,65.88
2018-02-12T15:01:12.740Z,66.55
2018-02-12T15:02:12.753Z,66.36
2018-02-12T15:04:05.664Z,67.31
2018-02-12T15:05:05.675Z,67.69
2018-02-12T15:06:59.559Z,67.50
2018-02-12T15:07:59.576Z,67.59
2018-02-12T15:09:52.508Z,67.31
2018-02-12T15:10:52.487Z,68.64
2018-02-12T15:12:45.384Z,69.36
2018-02-12T15:13:45.404Z,69.46
2018-02-12T15:15:38.311Z,69.93
2018-02-12T15:16:38.309Z,69.46
2018-02-12T15:18:31.222Z,68.10
2018-02-12T15:19:31.220Z,71.41
2018-02-12T15:21:24.186Z,78.30
2018-02-12T15:22:24.131Z,80.15
2018-02-12T15:24:17.072Z,82.71
2018-02-12T15:25:17.043Z,84.89
2018-02-12T15:27:09.936Z,86.03
2018-02-12T15:28:09.952Z,87.16
2018-02-12T15:30:02.864Z,88.02
2018-02-12T15:31:02.862Z,87.73
2018-02-12T15:32:55.828Z,88.30
2018-02-12T15:33:55.831Z,88.49
2018-02-12T15:35:48.818Z,88.78
2018-02-12T15:36:48.818Z,88.87
2018-02-12T15:38:41.772Z,89.15
2018-02-12T15:39:41.766Z,89.68
2018-02-12T15:41:34.705Z,90.25
2018-02-12T15:42:34.719Z,90.15
2018-02-12T15:44:27.678Z,91.10
2018-02-12T15:45:27.673Z,91.29
2018-02-12T15:47:20.615Z,91.67
2018-02-12T15:48:20.630Z,91.29
2018-02-12T15:50:14.612Z,91.57
2018-02-12T15:51:14.606Z,91.48
2018-02-12T15:53:07.546Z,92.14
2018-02-12T15:54:07.562Z,92.33
2018-02-12T15:56:00.520Z,93.56
2018-02-12T15:57:00.513Z,93.08
2018-02-12T15:58:53.473Z,93.27
2018-02-12T15:59:53.470Z,93.46
2018-02-12T16:01:46.410Z,93.37
2018-02-12T16:02:46.428Z,93.46
2018-02-12T16:04:39.382Z,93.27
2018-02-12T16:05:39.376Z,93.27
2018-02-12T16:07:32.342Z,93.46
2018-02-12T16:08:32.332Z,93.18
2018-02-12T16:10:25.296Z,92.99
2018-02-12T16:11:25.289Z,92.47
2018-02-12T16:13:18.738Z,91.90
2018-02-12T16:14:18.753Z,91.95
2018-02-12T16:16:11.668Z,91.90
2018-02-12T16:17:11.665Z,91.24
2018-02-12T16:19:04.665Z,92.19
2018-02-12T16:20:04.659Z,91.52
2018-02-12T16:21:57.604Z,91.14
2018-02-12T16:22:57.618Z,90.58
2018-02-12T16:24:50.574Z,90.77
2018-02-12T16:25:50.569Z,90.86
2018-02-12T16:27:43.508Z,90.10
2018-02-12T16:28:43.521Z,90.48
2018-02-12T16:30:36.480Z,89.63
2018-02-12T16:31:36.477Z,90.01
2018-02-12T16:33:29.417Z,89.63
2018-02-12T16:34:29.431Z,89.82
2018-02-12T16:36:22.388Z,89.44
2018-02-12T16:37:22.393Z,89.15
2018-02-12T16:39:15.345Z,89.15
2018-02-12T16:40:15.351Z,89.25
2018-02-12T16:42:08.284Z,89.06
2018-02-12T16:43:08.296Z,88.87
2018-02-12T16:45:01.291Z,88.78
2018-02-12T16:46:01.247Z,88.78
2018-02-12T16:47:54.192Z,88.78
2018-02-12T16:48:54.201Z,89.06
2018-02-12T16:50:47.160Z,88.68
2018-02-12T16:51:47.158Z,88.68
2018-02-12T16:53:40.098Z,88.59
2018-02-12T16:54:40.109Z,88.87
2018-02-12T16:56:34.617Z,88.68
2018-02-12T16:57:34.613Z,88.64
2018-02-12T16:59:27.576Z,89.20
2018-02-12T17:00:27.556Z,88.64
2018-02-12T17:02:20.496Z,89.20
2018-02-12T17:03:20.510Z,89.20
2018-02-12T17:05:13.466Z,89.20
2018-02-12T17:06:13.467Z,89.58
2018-02-12T17:08:06.404Z,89.20
2018-02-12T17:09:06.418Z,89.39
2018-02-12T17:10:59.388Z,89.30
2018-02-12T17:11:59.374Z,89.39
2018-02-12T17:13:52.311Z,89.49
2018-02-12T17:14:52.325Z,89.49
2018-02-12T17:16:45.309Z,89.39
2018-02-12T17:17:45.278Z,89.20
2018-02-12T17:19:38.238Z,89.49
2018-02-12T17:20:38.246Z,89.20
2018-02-12T17:22:31.174Z,89.01
2018-02-12T17:23:31.195Z,88.92
2018-02-12T17:25:24.147Z,88.92
2018-02-12T17:26:24.145Z,88.82
2018-02-12T17:28:17.593Z,89.20
2018-02-12T17:29:17.609Z,89.20
2018-02-12T17:31:10.567Z,89.11
2018-02-12T17:32:10.561Z,88.92
2018-02-12T17:34:03.502Z,89.58
2018-02-12T17:35:03.516Z,89.39
2018-02-12T17:36:56.987Z,89.20
2018-02-12T17:37:56.989Z,89.30
2018-02-12T17:39:49.943Z,89.58
2018-02-12T17:40:49.951Z,89.58
2018-02-12T17:42:42.878Z,89.20
2018-02-12T17:43:42.894Z,89.58
2018-02-12T17:45:35.852Z,89.30
2018-02-12T17:46:35.844Z,89.58
2018-02-12T17:48:29.809Z,89.39
2018-02-12T17:49:29.841Z,89.49
2018-02-12T17:51:22.781Z,89.87
2018-02-12T17:52:22.833Z,89.68
2018-02-12T17:54:16.233Z,89.96
2018-02-12T17:55:16.245Z,89.96
2018-02-12T17:57:09.200Z,89.68
2018-02-12T17:58:09.221Z,89.77
2018-02-12T18:00:02.179Z,89.82
2018-02-12T18:01:02.156Z,89.77
2018-02-12T18:02:55.104Z,89.68
2018-02-12T18:03:55.105Z,89.73
2018-02-12T18:05:48.089Z,89.73
2018-02-12T18:06:48.165Z,89.73
2018-02-12T18:08:41.006Z,89.87
2018-02-12T18:09:41.024Z,90.15
2018-02-12T18:11:33.988Z,90.39
2018-02-12T18:12:33.982Z,90.30
2018-02-12T18:14:27.426Z,90.20
2018-02-12T18:15:27.442Z,90.39
2018-02-12T18:17:20.405Z,90.30
2018-02-12T18:18:20.390Z,90.01
2018-02-12T18:20:13.862Z,89.92
2018-02-12T18:21:13.857Z,90.01
2018-02-12T18:23:06.799Z,90.01
2018-02-12T18:24:06.809Z,89.82
2018-02-12T18:25:59.792Z,89.82
2018-02-12T18:26:59.864Z,90.11
2018-02-12T18:28:52.709Z,90.30
2018-02-12T18:29:52.716Z,90.20
2018-02-12T18:31:45.684Z,90.01
2018-02-12T18:32:45.693Z,89.54